sensor_id;sensor_type;location;lat;lon;timestamp;P1;durP1;ratioP1;P2;durP2;ratioP2
2041;SDS011;1026;51.460;7.252;2022-10-26T00:00:41;2.47;;;2.27;;
2041;SDS011;1026;51.460;7.252;2022-10-26T00:03:07;2.40;;;1.97;;
2041;SDS011;1026;51.460;7.252;2022-10-26T00:05:33;1.90;;;1.80;;
2041;SDS011;1026;51.460;7.252;2022-10-26T00:07:59;2.63;;;2.23;;
2041;SDS011;1026;51.460;7.252;2022-10-26T00:10:25;1.73;;;1.63;;
2041;SDS011;1026;51.460;7.252;2022-10-26T00:12:51;2.00;;;1.80;;
2041;SDS011;1026;51.460;7.252;2022-10-26T00:15:17;2.13;;;1.93;;
2041;SDS011;1026;51.460;7.252;2022-10-26T00:17:44;2.30;;;2.10;;
2041;SDS011;1026;51.460;7.252;2022-10-26T00:20:10;3.17;;;1.73;;
2041;SDS011;1026;51.460;7.252;2022-10-26T00:22:36;2.43;;;2.23;;
2041;SDS011;1026;51.460;7.252;2022-10-26T00:25:02;2.33;;;2.13;;
2041;SDS011;1026;51.460;7.252;2022-10-26T00:27:27;3.00;;;2.80;;
2041;SDS011;1026;51.460;7.252;2022-10-26T00:29:54;2.17;;;2.00;;
2041;SDS011;1026;51.460;7.252;2022-10-26T00:32:19;2.53;;;1.93;;
2041;SDS011;1026;51.460;7.252;2022-10-26T00:34:45;3.00;;;1.80;;
2041;SDS011;1026;51.460;7.252;2022-10-26T00:37:11;2.50;;;2.30;;
2041;SDS011;1026;51.460;7.252;2022-10-26T00:39:36;2.20;;;2.00;;
2041;SDS011;1026;51.460;7.252;2022-10-26T00:42:02;3.10;;;2.90;;
2041;SDS011;1026;51.460;7.252;2022-10-26T00:50:11;2.40;;;2.07;;
2041;SDS011;1026;51.460;7.252;2022-10-26T00:52:42;2.53;;;2.13;;
2041;SDS011;1026;51.460;7.252;2022-10-26T00:55:08;2.07;;;1.80;;
2041;SDS011;1026;51.460;7.252;2022-10-26T00:57:34;2.50;;;2.30;;
2041;SDS011;1026;51.460;7.252;2022-10-26T01:00:02;2.60;;;2.37;;
2041;SDS011;1026;51.460;7.252;2022-10-26T01:02:30;3.00;;;2.00;;
2041;SDS011;1026;51.460;7.252;2022-10-26T01:04:56;3.93;;;2.10;;
2041;SDS011;1026;51.460;7.252;2022-10-26T01:07:22;2.13;;;1.83;;
2041;SDS011;1026;51.460;7.252;2022-10-26T01:09:48;2.00;;;1.80;;
2041;SDS011;1026;51.460;7.252;2022-10-26T01:12:13;2.20;;;2.00;;
2041;SDS011;1026;51.460;7.252;2022-10-26T01:14:39;2.40;;;2.13;;
2041;SDS011;1026;51.460;7.252;2022-10-26T01:22:31;1.80;;;1.67;;
2041;SDS011;1026;51.460;7.252;2022-10-26T01:25:08;2.17;;;2.07;;
2041;SDS011;1026;51.460;7.252;2022-10-26T01:27:38;3.30;;;2.00;;
2041;SDS011;1026;51.460;7.252;2022-10-26T01:32:56;2.07;;;1.87;;
2041;SDS011;1026;51.460;7.252;2022-10-26T01:43:48;2.37;;;2.17;;
2041;SDS011;1026;51.460;7.252;2022-10-26T01:46:17;1.90;;;1.80;;
2041;SDS011;1026;51.460;7.252;2022-10-26T01:48:45;2.53;;;2.20;;
2041;SDS011;1026;51.460;7.252;2022-10-26T01:51:14;2.40;;;2.13;;
2041;SDS011;1026;51.460;7.252;2022-10-26T01:53:43;2.40;;;2.20;;
2041;SDS011;1026;51.460;7.252;2022-10-26T01:56:12;3.07;;;2.30;;
2041;SDS011;1026;51.460;7.252;2022-10-26T01:58:47;2.33;;;2.13;;
2041;SDS011;1026;51.460;7.252;2022-10-26T02:07:16;2.30;;;1.77;;
2041;SDS011;1026;51.460;7.252;2022-10-26T02:09:59;4.70;;;2.00;;
2041;SDS011;1026;51.460;7.252;2022-10-26T02:15:19;2.10;;;1.90;;
2041;SDS011;1026;51.460;7.252;2022-10-26T02:17:57;2.17;;;2.00;;
2041;SDS011;1026;51.460;7.252;2022-10-26T02:20:27;2.60;;;1.83;;
2041;SDS011;1026;51.460;7.252;2022-10-26T02:22:57;1.70;;;1.60;;
2041;SDS011;1026;51.460;7.252;2022-10-26T02:25:28;3.17;;;2.20;;
2041;SDS011;1026;51.460;7.252;2022-10-26T02:27:59;1.47;;;1.37;;
2041;SDS011;1026;51.460;7.252;2022-10-26T02:30:28;2.63;;;1.93;;
2041;SDS011;1026;51.460;7.252;2022-10-26T02:32:55;2.47;;;2.00;;
2041;SDS011;1026;51.460;7.252;2022-10-26T02:35:24;2.47;;;1.77;;
2041;SDS011;1026;51.460;7.252;2022-10-26T02:37:52;2.70;;;2.30;;
2041;SDS011;1026;51.460;7.252;2022-10-26T02:40:22;2.27;;;2.07;;
2041;SDS011;1026;51.460;7.252;2022-10-26T02:42:50;2.00;;;1.70;;
2041;SDS011;1026;51.460;7.252;2022-10-26T02:45:19;1.60;;;1.50;;
2041;SDS011;1026;51.460;7.252;2022-10-26T02:47:47;2.20;;;1.93;;
2041;SDS011;1026;51.460;7.252;2022-10-26T02:50:14;1.93;;;1.83;;
2041;SDS011;1026;51.460;7.252;2022-10-26T02:55:31;1.60;;;1.50;;
2041;SDS011;1026;51.460;7.252;2022-10-26T02:58:02;2.27;;;1.80;;
2041;SDS011;1026;51.460;7.252;2022-10-26T03:00:34;2.30;;;2.10;;
2041;SDS011;1026;51.460;7.252;2022-10-26T03:02:59;2.17;;;1.53;;
2041;SDS011;1026;51.460;7.252;2022-10-26T03:05:28;1.73;;;1.63;;
2041;SDS011;1026;51.460;7.252;2022-10-26T03:07:57;4.27;;;2.27;;
2041;SDS011;1026;51.460;7.252;2022-10-26T03:10:24;3.10;;;2.30;;
2041;SDS011;1026;51.460;7.252;2022-10-26T03:12:50;1.93;;;1.80;;
2041;SDS011;1026;51.460;7.252;2022-10-26T03:15:16;1.70;;;1.60;;
2041;SDS011;1026;51.460;7.252;2022-10-26T03:17:41;1.80;;;1.70;;
2041;SDS011;1026;51.460;7.252;2022-10-26T03:20:08;2.33;;;2.10;;
2041;SDS011;1026;51.460;7.252;2022-10-26T03:22:34;1.63;;;1.53;;
2041;SDS011;1026;51.460;7.252;2022-10-26T03:24:59;1.83;;;1.70;;
2041;SDS011;1026;51.460;7.252;2022-10-26T03:27:25;2.07;;;1.70;;
2041;SDS011;1026;51.460;7.252;2022-10-26T03:29:51;2.87;;;1.60;;
2041;SDS011;1026;51.460;7.252;2022-10-26T03:32:17;2.23;;;1.83;;
2041;SDS011;1026;51.460;7.252;2022-10-26T03:34:42;2.10;;;1.63;;
2041;SDS011;1026;51.460;7.252;2022-10-26T03:37:08;2.10;;;1.80;;
2041;SDS011;1026;51.460;7.252;2022-10-26T03:39:34;3.00;;;1.60;;
2041;SDS011;1026;51.460;7.252;2022-10-26T03:42:00;2.00;;;1.80;;
2041;SDS011;1026;51.460;7.252;2022-10-26T03:44:25;1.40;;;1.30;;
2041;SDS011;1026;51.460;7.252;2022-10-26T03:46:51;1.40;;;1.20;;
2041;SDS011;1026;51.460;7.252;2022-10-26T03:49:16;2.23;;;2.03;;
2041;SDS011;1026;51.460;7.252;2022-10-26T03:51:42;6.80;;;1.90;;
2041;SDS011;1026;51.460;7.252;2022-10-26T03:54:08;2.20;;;1.80;;
2041;SDS011;1026;51.460;7.252;2022-10-26T03:56:33;1.97;;;1.60;;
2041;SDS011;1026;51.460;7.252;2022-10-26T03:58:59;3.53;;;1.47;;
2041;SDS011;1026;51.460;7.252;2022-10-26T04:01:24;1.50;;;1.40;;
2041;SDS011;1026;51.460;7.252;2022-10-26T04:03:50;1.80;;;1.40;;
2041;SDS011;1026;51.460;7.252;2022-10-26T04:06:16;1.80;;;1.27;;
2041;SDS011;1026;51.460;7.252;2022-10-26T04:08:41;2.83;;;1.50;;
2041;SDS011;1026;51.460;7.252;2022-10-26T04:11:07;3.03;;;1.90;;
2041;SDS011;1026;51.460;7.252;2022-10-26T04:13:32;2.43;;;1.73;;
2041;SDS011;1026;51.460;7.252;2022-10-26T04:15:58;3.13;;;1.30;;
2041;SDS011;1026;51.460;7.252;2022-10-26T04:18:24;1.53;;;1.20;;
2041;SDS011;1026;51.460;7.252;2022-10-26T04:20:50;1.30;;;1.20;;
2041;SDS011;1026;51.460;7.252;2022-10-26T04:23:16;4.90;;;1.57;;
2041;SDS011;1026;51.460;7.252;2022-10-26T04:25:43;1.33;;;1.23;;
2041;SDS011;1026;51.460;7.252;2022-10-26T04:28:09;1.63;;;1.30;;
2041;SDS011;1026;51.460;7.252;2022-10-26T04:30:37;3.10;;;1.40;;
2041;SDS011;1026;51.460;7.252;2022-10-26T04:33:03;2.60;;;1.07;;
2041;SDS011;1026;51.460;7.252;2022-10-26T04:35:30;2.03;;;1.30;;
2041;SDS011;1026;51.460;7.252;2022-10-26T04:37:57;1.10;;;1.00;;
2041;SDS011;1026;51.460;7.252;2022-10-26T04:40:23;1.70;;;1.30;;
2041;SDS011;1026;51.460;7.252;2022-10-26T04:42:49;1.87;;;1.20;;
2041;SDS011;1026;51.460;7.252;2022-10-26T04:45:14;1.50;;;1.40;;
2041;SDS011;1026;51.460;7.252;2022-10-26T04:47:40;1.40;;;1.30;;
2041;SDS011;1026;51.460;7.252;2022-10-26T04:50:07;1.60;;;1.17;;
2041;SDS011;1026;51.460;7.252;2022-10-26T04:52:34;1.30;;;1.20;;
2041;SDS011;1026;51.460;7.252;2022-10-26T04:55:00;1.33;;;1.23;;
2041;SDS011;1026;51.460;7.252;2022-10-26T04:57:29;1.37;;;1.27;;
2041;SDS011;1026;51.460;7.252;2022-10-26T04:59:55;4.57;;;1.17;;
2041;SDS011;1026;51.460;7.252;2022-10-26T05:02:21;3.70;;;1.40;;
2041;SDS011;1026;51.460;7.252;2022-10-26T05:04:47;1.60;;;1.30;;
2041;SDS011;1026;51.460;7.252;2022-10-26T05:07:12;1.53;;;0.90;;
2041;SDS011;1026;51.460;7.252;2022-10-26T05:09:38;3.63;;;1.37;;
2041;SDS011;1026;51.460;7.252;2022-10-26T05:12:04;1.47;;;1.13;;
2041;SDS011;1026;51.460;7.252;2022-10-26T05:14:29;1.30;;;1.20;;
2041;SDS011;1026;51.460;7.252;2022-10-26T05:16:55;1.97;;;1.60;;
2041;SDS011;1026;51.460;7.252;2022-10-26T05:19:21;1.47;;;1.37;;
2041;SDS011;1026;51.460;7.252;2022-10-26T05:21:47;1.20;;;1.10;;
2041;SDS011;1026;51.460;7.252;2022-10-26T05:24:13;3.30;;;1.60;;
2041;SDS011;1026;51.460;7.252;2022-10-26T05:26:38;1.23;;;1.13;;
2041;SDS011;1026;51.460;7.252;2022-10-26T05:29:04;2.30;;;1.47;;
2041;SDS011;1026;51.460;7.252;2022-10-26T05:31:29;1.03;;;0.93;;
2041;SDS011;1026;51.460;7.252;2022-10-26T05:33:55;3.33;;;1.20;;
2041;SDS011;1026;51.460;7.252;2022-10-26T05:36:21;1.30;;;1.10;;
2041;SDS011;1026;51.460;7.252;2022-10-26T05:38:46;1.83;;;1.57;;
2041;SDS011;1026;51.460;7.252;2022-10-26T05:41:12;1.33;;;1.23;;
2041;SDS011;1026;51.460;7.252;2022-10-26T05:43:37;2.70;;;1.40;;
2041;SDS011;1026;51.460;7.252;2022-10-26T05:46:03;4.73;;;1.10;;
2041;SDS011;1026;51.460;7.252;2022-10-26T05:48:29;1.90;;;0.87;;
2041;SDS011;1026;51.460;7.252;2022-10-26T05:50:58;1.43;;;1.33;;
2041;SDS011;1026;51.460;7.252;2022-10-26T05:53:25;1.30;;;0.90;;
2041;SDS011;1026;51.460;7.252;2022-10-26T05:55:51;1.07;;;1.00;;
2041;SDS011;1026;51.460;7.252;2022-10-26T05:58:18;0.97;;;0.93;;
2041;SDS011;1026;51.460;7.252;2022-10-26T06:03:29;2.73;;;1.13;;
2041;SDS011;1026;51.460;7.252;2022-10-26T06:06:00;1.10;;;0.93;;
2041;SDS011;1026;51.460;7.252;2022-10-26T06:08:26;1.53;;;1.10;;
2041;SDS011;1026;51.460;7.252;2022-10-26T06:10:53;4.70;;;0.87;;
2041;SDS011;1026;51.460;7.252;2022-10-26T06:13:21;1.20;;;1.10;;
2041;SDS011;1026;51.460;7.252;2022-10-26T06:31:34;1.37;;;0.90;;
2041;SDS011;1026;51.460;7.252;2022-10-26T06:34:00;3.30;;;1.30;;
2041;SDS011;1026;51.460;7.252;2022-10-26T06:36:26;1.13;;;1.00;;
2041;SDS011;1026;51.460;7.252;2022-10-26T06:38:54;1.77;;;1.00;;
2041;SDS011;1026;51.460;7.252;2022-10-26T06:41:27;2.40;;;1.23;;
2041;SDS011;1026;51.460;7.252;2022-10-26T06:43:55;3.63;;;1.00;;
2041;SDS011;1026;51.460;7.252;2022-10-26T06:46:24;2.13;;;1.10;;
2041;SDS011;1026;51.460;7.252;2022-10-26T06:49:18;3.80;;;1.00;;
2041;SDS011;1026;51.460;7.252;2022-10-26T06:51:58;1.33;;;1.13;;
2041;SDS011;1026;51.460;7.252;2022-10-26T06:57:18;1.60;;;1.10;;
2041;SDS011;1026;51.460;7.252;2022-10-26T06:59:54;1.67;;;1.10;;
2041;SDS011;1026;51.460;7.252;2022-10-26T07:02:23;3.50;;;1.40;;
2041;SDS011;1026;51.460;7.252;2022-10-26T07:04:49;1.20;;;1.10;;
2041;SDS011;1026;51.460;7.252;2022-10-26T07:07:22;4.00;;;1.07;;
2041;SDS011;1026;51.460;7.252;2022-10-26T07:09:50;1.77;;;0.83;;
2041;SDS011;1026;51.460;7.252;2022-10-26T07:12:16;1.20;;;1.10;;
2041;SDS011;1026;51.460;7.252;2022-10-26T07:14:42;2.37;;;1.27;;
2041;SDS011;1026;51.460;7.252;2022-10-26T07:17:08;1.63;;;1.20;;
2041;SDS011;1026;51.460;7.252;2022-10-26T07:19:35;1.13;;;1.03;;
2041;SDS011;1026;51.460;7.252;2022-10-26T07:22:01;4.27;;;1.07;;
2041;SDS011;1026;51.460;7.252;2022-10-26T07:24:27;2.77;;;0.97;;
2041;SDS011;1026;51.460;7.252;2022-10-26T07:26:53;2.73;;;1.10;;
2041;SDS011;1026;51.460;7.252;2022-10-26T07:29:20;4.03;;;1.10;;
2041;SDS011;1026;51.460;7.252;2022-10-26T07:31:47;2.70;;;1.80;;
2041;SDS011;1026;51.460;7.252;2022-10-26T07:34:12;1.73;;;1.10;;
2041;SDS011;1026;51.460;7.252;2022-10-26T07:36:38;2.10;;;1.03;;
2041;SDS011;1026;51.460;7.252;2022-10-26T07:39:04;1.13;;;1.00;;
2041;SDS011;1026;51.460;7.252;2022-10-26T07:41:31;1.30;;;0.77;;
2041;SDS011;1026;51.460;7.252;2022-10-26T07:43:56;2.40;;;1.20;;
2041;SDS011;1026;51.460;7.252;2022-10-26T07:46:22;1.23;;;0.90;;
2041;SDS011;1026;51.460;7.252;2022-10-26T07:48:48;4.00;;;1.23;;
2041;SDS011;1026;51.460;7.252;2022-10-26T07:51:14;2.20;;;1.10;;
2041;SDS011;1026;51.460;7.252;2022-10-26T07:53:40;3.07;;;0.80;;
2041;SDS011;1026;51.460;7.252;2022-10-26T07:56:06;1.43;;;1.10;;
2041;SDS011;1026;51.460;7.252;2022-10-26T07:58:32;2.93;;;1.00;;
2041;SDS011;1026;51.460;7.252;2022-10-26T08:01:04;6.97;;;1.27;;
2041;SDS011;1026;51.460;7.252;2022-10-26T08:03:31;1.13;;;1.03;;
2041;SDS011;1026;51.460;7.252;2022-10-26T08:05:57;2.10;;;0.80;;
2041;SDS011;1026;51.460;7.252;2022-10-26T08:08:22;2.30;;;0.90;;
2041;SDS011;1026;51.460;7.252;2022-10-26T08:10:48;2.07;;;1.13;;
2041;SDS011;1026;51.460;7.252;2022-10-26T08:13:15;1.10;;;1.00;;
2041;SDS011;1026;51.460;7.252;2022-10-26T08:15:40;0.80;;;0.80;;
2041;SDS011;1026;51.460;7.252;2022-10-26T08:18:06;1.30;;;1.20;;
2041;SDS011;1026;51.460;7.252;2022-10-26T08:20:31;0.83;;;0.83;;
2041;SDS011;1026;51.460;7.252;2022-10-26T08:22:57;2.53;;;1.37;;
2041;SDS011;1026;51.460;7.252;2022-10-26T08:25:24;1.10;;;0.80;;
2041;SDS011;1026;51.460;7.252;2022-10-26T08:27:50;6.60;;;1.30;;
2041;SDS011;1026;51.460;7.252;2022-10-26T08:30:16;1.87;;;1.10;;
2041;SDS011;1026;51.460;7.252;2022-10-26T08:32:42;1.30;;;0.87;;
2041;SDS011;1026;51.460;7.252;2022-10-26T08:35:08;1.90;;;1.13;;
2041;SDS011;1026;51.460;7.252;2022-10-26T08:37:34;1.47;;;1.03;;
2041;SDS011;1026;51.460;7.252;2022-10-26T08:40:00;1.80;;;1.07;;
2041;SDS011;1026;51.460;7.252;2022-10-26T08:42:29;1.43;;;1.33;;
2041;SDS011;1026;51.460;7.252;2022-10-26T08:45:00;2.17;;;1.30;;
2041;SDS011;1026;51.460;7.252;2022-10-26T08:47:33;1.67;;;1.20;;
2041;SDS011;1026;51.460;7.252;2022-10-26T08:50:12;1.57;;;1.10;;
2041;SDS011;1026;51.460;7.252;2022-10-26T08:55:38;4.07;;;1.07;;
2041;SDS011;1026;51.460;7.252;2022-10-26T08:58:09;1.17;;;1.17;;
2041;SDS011;1026;51.460;7.252;2022-10-26T09:00:39;2.20;;;1.30;;
2041;SDS011;1026;51.460;7.252;2022-10-26T09:03:10;1.80;;;1.70;;
2041;SDS011;1026;51.460;7.252;2022-10-26T09:05:43;4.40;;;1.30;;
2041;SDS011;1026;51.460;7.252;2022-10-26T09:11:05;1.57;;;1.30;;
2041;SDS011;1026;51.460;7.252;2022-10-26T09:18:56;2.20;;;1.60;;
2041;SDS011;1026;51.460;7.252;2022-10-26T09:26:57;1.53;;;1.43;;
2041;SDS011;1026;51.460;7.252;2022-10-26T09:29:38;1.30;;;1.10;;
2041;SDS011;1026;51.460;7.252;2022-10-26T09:32:08;3.00;;;1.30;;
2041;SDS011;1026;51.460;7.252;2022-10-26T09:34:44;1.83;;;1.73;;
2041;SDS011;1026;51.460;7.252;2022-10-26T09:42:42;2.63;;;1.87;;
2041;SDS011;1026;51.460;7.252;2022-10-26T09:45:15;1.83;;;1.10;;
2041;SDS011;1026;51.460;7.252;2022-10-26T09:47:48;1.27;;;1.00;;
2041;SDS011;1026;51.460;7.252;2022-10-26T09:52:50;2.23;;;1.40;;
2041;SDS011;1026;51.460;7.252;2022-10-26T09:55:15;5.70;;;1.73;;
2041;SDS011;1026;51.460;7.252;2022-10-26T09:57:42;1.93;;;1.60;;
2041;SDS011;1026;51.460;7.252;2022-10-26T10:00:18;3.57;;;1.40;;
2041;SDS011;1026;51.460;7.252;2022-10-26T10:02:49;2.40;;;1.50;;
2041;SDS011;1026;51.460;7.252;2022-10-26T10:05:21;3.90;;;1.30;;
2041;SDS011;1026;51.460;7.252;2022-10-26T10:07:53;4.03;;;1.93;;
2041;SDS011;1026;51.460;7.252;2022-10-26T10:10:35;1.73;;;1.47;;
2041;SDS011;1026;51.460;7.252;2022-10-26T10:13:13;1.70;;;1.43;;
2041;SDS011;1026;51.460;7.252;2022-10-26T10:15:46;2.20;;;1.67;;
2041;SDS011;1026;51.460;7.252;2022-10-26T10:18:18;3.10;;;1.53;;
2041;SDS011;1026;51.460;7.252;2022-10-26T10:20:54;3.93;;;1.97;;
2041;SDS011;1026;51.460;7.252;2022-10-26T10:23:24;3.73;;;1.70;;
2041;SDS011;1026;51.460;7.252;2022-10-26T10:28:35;5.20;;;2.00;;
2041;SDS011;1026;51.460;7.252;2022-10-26T10:31:02;3.40;;;1.90;;
2041;SDS011;1026;51.460;7.252;2022-10-26T10:33:31;1.73;;;1.40;;
2041;SDS011;1026;51.460;7.252;2022-10-26T10:36:03;2.13;;;1.57;;
2041;SDS011;1026;51.460;7.252;2022-10-26T10:38:35;5.20;;;1.70;;
2041;SDS011;1026;51.460;7.252;2022-10-26T10:41:03;10.80;;;1.80;;
2041;SDS011;1026;51.460;7.252;2022-10-26T10:43:29;2.47;;;1.30;;
2041;SDS011;1026;51.460;7.252;2022-10-26T10:45:55;5.80;;;2.27;;
2041;SDS011;1026;51.460;7.252;2022-10-26T10:48:24;2.50;;;1.40;;
2041;SDS011;1026;51.460;7.252;2022-10-26T10:50:54;3.20;;;2.10;;
2041;SDS011;1026;51.460;7.252;2022-10-26T10:53:25;4.47;;;2.07;;
2041;SDS011;1026;51.460;7.252;2022-10-26T10:59:07;3.10;;;2.03;;
2041;SDS011;1026;51.460;7.252;2022-10-26T11:01:49;2.40;;;1.90;;
2041;SDS011;1026;51.460;7.252;2022-10-26T11:04:43;2.90;;;1.90;;
2041;SDS011;1026;51.460;7.252;2022-10-26T11:07:14;2.97;;;1.57;;
2041;SDS011;1026;51.460;7.252;2022-10-26T11:09:43;2.83;;;1.90;;
2041;SDS011;1026;51.460;7.252;2022-10-26T11:12:13;2.37;;;1.63;;
2041;SDS011;1026;51.460;7.252;2022-10-26T11:14:44;7.43;;;2.40;;
2041;SDS011;1026;51.460;7.252;2022-10-26T11:17:17;4.80;;;2.30;;
2041;SDS011;1026;51.460;7.252;2022-10-26T11:19:48;5.47;;;2.10;;
2041;SDS011;1026;51.460;7.252;2022-10-26T11:22:23;6.20;;;2.40;;
2041;SDS011;1026;51.460;7.252;2022-10-26T11:27:52;4.10;;;2.40;;
2041;SDS011;1026;51.460;7.252;2022-10-26T11:30:22;3.60;;;3.00;;
2041;SDS011;1026;51.460;7.252;2022-10-26T11:32:51;2.23;;;1.60;;
2041;SDS011;1026;51.460;7.252;2022-10-26T11:35:27;3.53;;;2.20;;
2041;SDS011;1026;51.460;7.252;2022-10-26T11:38:11;2.97;;;1.77;;
2041;SDS011;1026;51.460;7.252;2022-10-26T11:43:13;4.53;;;2.13;;
2041;SDS011;1026;51.460;7.252;2022-10-26T11:45:44;4.27;;;2.17;;
2041;SDS011;1026;51.460;7.252;2022-10-26T11:50:49;8.10;;;3.17;;
2041;SDS011;1026;51.460;7.252;2022-10-26T11:53:20;2.90;;;2.13;;
2041;SDS011;1026;51.460;7.252;2022-10-26T11:55:51;5.50;;;2.90;;
2041;SDS011;1026;51.460;7.252;2022-10-26T11:58:18;4.93;;;1.90;;
2041;SDS011;1026;51.460;7.252;2022-10-26T12:00:50;3.23;;;2.03;;
2041;SDS011;1026;51.460;7.252;2022-10-26T12:03:22;2.93;;;2.03;;
2041;SDS011;1026;51.460;7.252;2022-10-26T12:05:52;4.53;;;2.50;;
2041;SDS011;1026;51.460;7.252;2022-10-26T12:08:21;2.23;;;2.03;;
2041;SDS011;1026;51.460;7.252;2022-10-26T12:11:04;2.17;;;1.70;;
2041;SDS011;1026;51.460;7.252;2022-10-26T12:16:19;2.43;;;2.17;;
2041;SDS011;1026;51.460;7.252;2022-10-26T12:19:03;2.80;;;2.00;;
2041;SDS011;1026;51.460;7.252;2022-10-26T12:21:33;4.53;;;2.93;;
2041;SDS011;1026;51.460;7.252;2022-10-26T12:24:00;2.13;;;1.90;;
2041;SDS011;1026;51.460;7.252;2022-10-26T12:26:54;1.63;;;1.53;;
2041;SDS011;1026;51.460;7.252;2022-10-26T12:31:54;3.27;;;1.73;;
2041;SDS011;1026;51.460;7.252;2022-10-26T12:34:21;4.70;;;3.30;;
2041;SDS011;1026;51.460;7.252;2022-10-26T12:39:33;2.97;;;1.90;;
2041;SDS011;1026;51.460;7.252;2022-10-26T12:44:30;2.23;;;1.60;;
2041;SDS011;1026;51.460;7.252;2022-10-26T12:49:58;3.23;;;2.07;;
2041;SDS011;1026;51.460;7.252;2022-10-26T12:52:37;4.27;;;2.13;;
2041;SDS011;1026;51.460;7.252;2022-10-26T13:00:45;2.90;;;1.97;;
2041;SDS011;1026;51.460;7.252;2022-10-26T13:03:33;2.30;;;1.40;;
2041;SDS011;1026;51.460;7.252;2022-10-26T13:08:56;1.77;;;1.57;;
2041;SDS011;1026;51.460;7.252;2022-10-26T13:11:27;3.83;;;1.70;;
2041;SDS011;1026;51.460;7.252;2022-10-26T13:13:55;3.20;;;1.53;;
2041;SDS011;1026;51.460;7.252;2022-10-26T13:16:25;3.47;;;1.50;;
2041;SDS011;1026;51.460;7.252;2022-10-26T13:18:52;2.27;;;1.80;;
2041;SDS011;1026;51.460;7.252;2022-10-26T13:21:19;7.03;;;1.60;;
2041;SDS011;1026;51.460;7.252;2022-10-26T13:23:47;1.70;;;1.60;;
2041;SDS011;1026;51.460;7.252;2022-10-26T13:26:22;4.50;;;1.50;;
2041;SDS011;1026;51.460;7.252;2022-10-26T13:28:52;3.13;;;1.50;;
2041;SDS011;1026;51.460;7.252;2022-10-26T13:34:18;1.47;;;1.10;;
2041;SDS011;1026;51.460;7.252;2022-10-26T13:39:42;4.00;;;1.63;;
2041;SDS011;1026;51.460;7.252;2022-10-26T13:42:13;2.27;;;1.37;;
2041;SDS011;1026;51.460;7.252;2022-10-26T13:44:44;2.40;;;1.20;;
2041;SDS011;1026;51.460;7.252;2022-10-26T13:47:40;1.27;;;1.13;;
2041;SDS011;1026;51.460;7.252;2022-10-26T13:50:13;1.30;;;1.17;;
2041;SDS011;1026;51.460;7.252;2022-10-26T13:52:42;1.37;;;1.20;;
2041;SDS011;1026;51.460;7.252;2022-10-26T14:03:39;2.30;;;1.30;;
2041;SDS011;1026;51.460;7.252;2022-10-26T14:08:38;2.70;;;1.30;;
2041;SDS011;1026;51.460;7.252;2022-10-26T14:11:06;2.00;;;1.27;;
2041;SDS011;1026;51.460;7.252;2022-10-26T14:13:36;3.03;;;1.30;;
2041;SDS011;1026;51.460;7.252;2022-10-26T14:16:05;2.73;;;1.30;;
2041;SDS011;1026;51.460;7.252;2022-10-26T14:18:33;2.93;;;1.27;;
2041;SDS011;1026;51.460;7.252;2022-10-26T14:21:01;2.80;;;1.30;;
2041;SDS011;1026;51.460;7.252;2022-10-26T14:23:33;0.93;;;0.90;;
2041;SDS011;1026;51.460;7.252;2022-10-26T14:26:00;1.13;;;1.07;;
2041;SDS011;1026;51.460;7.252;2022-10-26T14:28:28;1.30;;;1.10;;
2041;SDS011;1026;51.460;7.252;2022-10-26T14:33:44;1.50;;;1.40;;
2041;SDS011;1026;51.460;7.252;2022-10-26T14:36:10;2.63;;;1.07;;
2041;SDS011;1026;51.460;7.252;2022-10-26T14:38:41;1.73;;;1.47;;
2041;SDS011;1026;51.460;7.252;2022-10-26T14:41:10;1.30;;;1.20;;
2041;SDS011;1026;51.460;7.252;2022-10-26T14:43:38;2.67;;;1.30;;
2041;SDS011;1026;51.460;7.252;2022-10-26T14:46:04;3.50;;;1.50;;
2041;SDS011;1026;51.460;7.252;2022-10-26T14:48:30;3.33;;;1.57;;
2041;SDS011;1026;51.460;7.252;2022-10-26T14:51:01;3.47;;;1.67;;
2041;SDS011;1026;51.460;7.252;2022-10-26T14:53:32;3.90;;;1.20;;
2041;SDS011;1026;51.460;7.252;2022-10-26T14:56:02;1.43;;;1.33;;
2041;SDS011;1026;51.460;7.252;2022-10-26T14:58:29;1.40;;;1.30;;
2041;SDS011;1026;51.460;7.252;2022-10-26T15:03:39;3.40;;;1.87;;
2041;SDS011;1026;51.460;7.252;2022-10-26T15:09:02;4.60;;;1.80;;
2041;SDS011;1026;51.460;7.252;2022-10-26T15:11:31;3.17;;;2.17;;
2041;SDS011;1026;51.460;7.252;2022-10-26T15:13:58;3.70;;;2.17;;
2041;SDS011;1026;51.460;7.252;2022-10-26T15:16:25;4.47;;;3.10;;
2041;SDS011;1026;51.460;7.252;2022-10-26T15:18:54;2.67;;;2.13;;
2041;SDS011;1026;51.460;7.252;2022-10-26T15:21:36;2.53;;;1.37;;
2041;SDS011;1026;51.460;7.252;2022-10-26T15:26:46;4.77;;;1.40;;
2041;SDS011;1026;51.460;7.252;2022-10-26T15:32:18;3.10;;;1.30;;
2041;SDS011;1026;51.460;7.252;2022-10-26T15:35:04;3.57;;;2.63;;
2041;SDS011;1026;51.460;7.252;2022-10-26T15:37:38;3.23;;;1.43;;
2041;SDS011;1026;51.460;7.252;2022-10-26T15:40:04;2.90;;;1.20;;
2041;SDS011;1026;51.460;7.252;2022-10-26T15:42:30;2.67;;;1.80;;
2041;SDS011;1026;51.460;7.252;2022-10-26T15:44:56;1.60;;;1.17;;
2041;SDS011;1026;51.460;7.252;2022-10-26T15:47:23;1.90;;;1.20;;
2041;SDS011;1026;51.460;7.252;2022-10-26T15:49:58;1.13;;;1.03;;
2041;SDS011;1026;51.460;7.252;2022-10-26T15:52:23;2.03;;;1.53;;
2041;SDS011;1026;51.460;7.252;2022-10-26T15:54:49;1.37;;;1.00;;
2041;SDS011;1026;51.460;7.252;2022-10-26T15:57:15;3.70;;;1.37;;
2041;SDS011;1026;51.460;7.252;2022-10-26T15:59:40;2.37;;;1.00;;
2041;SDS011;1026;51.460;7.252;2022-10-26T16:02:12;2.93;;;1.43;;
2041;SDS011;1026;51.460;7.252;2022-10-26T16:04:39;1.83;;;1.47;;
2041;SDS011;1026;51.460;7.252;2022-10-26T16:07:05;4.23;;;1.60;;
2041;SDS011;1026;51.460;7.252;2022-10-26T16:09:35;8.90;;;2.10;;
2041;SDS011;1026;51.460;7.252;2022-10-26T16:12:01;1.33;;;1.13;;
2041;SDS011;1026;51.460;7.252;2022-10-26T16:14:26;2.50;;;1.33;;
2041;SDS011;1026;51.460;7.252;2022-10-26T16:16:52;7.17;;;2.17;;
2041;SDS011;1026;51.460;7.252;2022-10-26T16:19:18;3.67;;;1.80;;
2041;SDS011;1026;51.460;7.252;2022-10-26T16:21:44;7.53;;;2.97;;
2041;SDS011;1026;51.460;7.252;2022-10-26T16:24:09;4.57;;;3.03;;
2041;SDS011;1026;51.460;7.252;2022-10-26T16:26:35;2.70;;;2.40;;
2041;SDS011;1026;51.460;7.252;2022-10-26T16:29:01;3.00;;;2.40;;
2041;SDS011;1026;51.460;7.252;2022-10-26T16:31:26;4.10;;;1.80;;
2041;SDS011;1026;51.460;7.252;2022-10-26T16:33:52;2.70;;;1.40;;
2041;SDS011;1026;51.460;7.252;2022-10-26T16:36:18;1.63;;;1.53;;
2041;SDS011;1026;51.460;7.252;2022-10-26T16:38:44;2.50;;;1.63;;
2041;SDS011;1026;51.460;7.252;2022-10-26T16:41:10;5.90;;;2.07;;
2041;SDS011;1026;51.460;7.252;2022-10-26T16:43:38;4.53;;;1.77;;
2041;SDS011;1026;51.460;7.252;2022-10-26T16:46:07;2.40;;;1.60;;
2041;SDS011;1026;51.460;7.252;2022-10-26T16:48:48;2.90;;;1.73;;
2041;SDS011;1026;51.460;7.252;2022-10-26T16:51:17;5.93;;;1.90;;
2041;SDS011;1026;51.460;7.252;2022-10-26T16:53:45;3.17;;;1.90;;
2041;SDS011;1026;51.460;7.252;2022-10-26T16:56:13;1.77;;;1.67;;
2041;SDS011;1026;51.460;7.252;2022-10-26T16:58:40;2.80;;;1.83;;
2041;SDS011;1026;51.460;7.252;2022-10-26T17:01:06;4.57;;;2.37;;
2041;SDS011;1026;51.460;7.252;2022-10-26T17:03:33;1.80;;;1.60;;
2041;SDS011;1026;51.460;7.252;2022-10-26T17:05:59;1.70;;;1.60;;
2041;SDS011;1026;51.460;7.252;2022-10-26T17:08:26;4.17;;;2.03;;
2041;SDS011;1026;51.460;7.252;2022-10-26T17:10:53;4.03;;;2.30;;
2041;SDS011;1026;51.460;7.252;2022-10-26T17:13:25;4.23;;;1.60;;
2041;SDS011;1026;51.460;7.252;2022-10-26T17:15:51;17.97;;;2.17;;
2041;SDS011;1026;51.460;7.252;2022-10-26T17:18:17;7.00;;;2.10;;
2041;SDS011;1026;51.460;7.252;2022-10-26T17:20:49;3.20;;;2.13;;
2041;SDS011;1026;51.460;7.252;2022-10-26T17:23:16;3.57;;;2.10;;
2041;SDS011;1026;51.460;7.252;2022-10-26T17:25:42;3.17;;;1.97;;
2041;SDS011;1026;51.460;7.252;2022-10-26T17:28:07;2.93;;;2.30;;
2041;SDS011;1026;51.460;7.252;2022-10-26T17:30:33;3.63;;;1.97;;
2041;SDS011;1026;51.460;7.252;2022-10-26T17:33:00;3.23;;;2.07;;
2041;SDS011;1026;51.460;7.252;2022-10-26T17:35:26;4.37;;;2.40;;
2041;SDS011;1026;51.460;7.252;2022-10-26T17:37:51;2.70;;;1.90;;
2041;SDS011;1026;51.460;7.252;2022-10-26T17:40:17;2.97;;;1.77;;
2041;SDS011;1026;51.460;7.252;2022-10-26T17:42:43;3.90;;;1.67;;
2041;SDS011;1026;51.460;7.252;2022-10-26T17:45:08;1.63;;;1.53;;
2041;SDS011;1026;51.460;7.252;2022-10-26T17:47:34;2.00;;;1.80;;
2041;SDS011;1026;51.460;7.252;2022-10-26T17:50:00;2.60;;;2.23;;